sensor_id;sensor_type;location;lat;lon;timestamp;temperature;humidity
7206;DHT22;3644;53.480;10.004;2022-09-03T00:01:35;17.30;99.90
7206;DHT22;3644;53.480;10.004;2022-09-03T00:04:06;17.20;99.90
7206;DHT22;3644;53.480;10.004;2022-09-03T00:06:42;17.10;99.90
7206;DHT22;3644;53.480;10.004;2022-09-03T00:09:27;17.10;99.90
7206;DHT22;3644;53.480;10.004;2022-09-03T00:14:45;17.00;99.90
7206;DHT22;3644;53.480;10.004;2022-09-03T00:17:18;17.10;99.90
7206;DHT22;3644;53.480;10.004;2022-09-03T00:20:00;16.90;99.90
7206;DHT22;3644;53.480;10.004;2022-09-03T00:22:38;16.90;99.90
7206;DHT22;3644;53.480;10.004;2022-09-03T00:25:08;16.80;99.90
7206;DHT22;3644;53.480;10.004;2022-09-03T00:27:38;16.80;99.90
7206;DHT22;3644;53.480;10.004;2022-09-03T00:30:09;16.70;99.90
7206;DHT22;3644;53.480;10.004;2022-09-03T00:32:49;16.70;99.90
7206;DHT22;3644;53.480;10.004;2022-09-03T00:35:22;16.80;99.90
7206;DHT22;3644;53.480;10.004;2022-09-03T00:37:51;16.80;99.90
7206;DHT22;3644;53.480;10.004;2022-09-03T00:40:52;16.70;99.90
7206;DHT22;3644;53.480;10.004;2022-09-03T00:43:33;16.70;99.90
7206;DHT22;3644;53.480;10.004;2022-09-03T00:46:23;16.60;99.90
7206;DHT22;3644;53.480;10.004;2022-09-03T00:51:55;16.60;99.90
7206;DHT22;3644;53.480;10.004;2022-09-03T01:00:32;16.60;99.90
7206;DHT22;3644;53.480;10.004;2022-09-03T01:08:17;16.60;99.90
7206;DHT22;3644;53.480;10.004;2022-09-03T01:13:42;16.60;99.90
7206;DHT22;3644;53.480;10.004;2022-09-03T01:22:11;16.70;99.90
7206;DHT22;3644;53.480;10.004;2022-09-03T01:30:39;16.20;99.90
7206;DHT22;3644;53.480;10.004;2022-09-03T01:33:32;16.30;99.90
7206;DHT22;3644;53.480;10.004;2022-09-03T01:44:49;16.40;99.90
7206;DHT22;3644;53.480;10.004;2022-09-03T01:50:06;16.30;99.90
7206;DHT22;3644;53.480;10.004;2022-09-03T01:52:48;16.50;99.90
7206;DHT22;3644;53.480;10.004;2022-09-03T01:55:28;16.30;99.90
7206;DHT22;3644;53.480;10.004;2022-09-03T01:58:28;16.40;99.90
7206;DHT22;3644;53.480;10.004;2022-09-03T02:00:55;16.30;99.90
7206;DHT22;3644;53.480;10.004;2022-09-03T02:03:24;16.30;99.90
7206;DHT22;3644;53.480;10.004;2022-09-03T02:05:51;16.20;99.90
7206;DHT22;3644;53.480;10.004;2022-09-03T02:08:17;16.30;99.90
7206;DHT22;3644;53.480;10.004;2022-09-03T02:10:48;16.20;99.90
7206;DHT22;3644;53.480;10.004;2022-09-03T02:13:21;16.20;99.90
7206;DHT22;3644;53.480;10.004;2022-09-03T02:15:50;16.20;99.90
7206;DHT22;3644;53.480;10.004;2022-09-03T02:18:21;16.10;99.90
7206;DHT22;3644;53.480;10.004;2022-09-03T02:20:49;16.20;99.90
7206;DHT22;3644;53.480;10.004;2022-09-03T02:23:16;16.10;99.90
7206;DHT22;3644;53.480;10.004;2022-09-03T02:25:46;16.00;99.90
7206;DHT22;3644;53.480;10.004;2022-09-03T02:28:13;15.90;99.90
7206;DHT22;3644;53.480;10.004;2022-09-03T02:30:39;16.00;99.90
7206;DHT22;3644;53.480;10.004;2022-09-03T02:33:05;16.00;99.90
7206;DHT22;3644;53.480;10.004;2022-09-03T02:35:30;15.90;99.90
7206;DHT22;3644;53.480;10.004;2022-09-03T02:37:56;15.90;99.90
7206;DHT22;3644;53.480;10.004;2022-09-03T02:40:21;15.80;99.90
7206;DHT22;3644;53.480;10.004;2022-09-03T02:42:47;15.80;99.90
7206;DHT22;3644;53.480;10.004;2022-09-03T02:45:26;15.70;99.90
7206;DHT22;3644;53.480;10.004;2022-09-03T02:47:55;15.70;99.90
7206;DHT22;3644;53.480;10.004;2022-09-03T02:50:21;15.70;99.90
7206;DHT22;3644;53.480;10.004;2022-09-03T02:52:47;15.70;99.90
7206;DHT22;3644;53.480;10.004;2022-09-03T02:55:12;15.60;99.90
7206;DHT22;3644;53.480;10.004;2022-09-03T02:57:38;15.50;99.90
7206;DHT22;3644;53.480;10.004;2022-09-03T03:00:04;15.50;99.90
7206;DHT22;3644;53.480;10.004;2022-09-03T03:02:30;15.50;99.90
7206;DHT22;3644;53.480;10.004;2022-09-03T03:04:55;15.60;99.90
7206;DHT22;3644;53.480;10.004;2022-09-03T03:07:21;15.50;99.90
7206;DHT22;3644;53.480;10.004;2022-09-03T03:09:46;15.50;99.90
7206;DHT22;3644;53.480;10.004;2022-09-03T03:12:12;15.40;99.90
7206;DHT22;3644;53.480;10.004;2022-09-03T03:14:37;15.40;99.90
7206;DHT22;3644;53.480;10.004;2022-09-03T03:17:03;15.40;99.90
7206;DHT22;3644;53.480;10.004;2022-09-03T03:19:28;15.40;99.90
7206;DHT22;3644;53.480;10.004;2022-09-03T03:21:54;15.30;99.90
7206;DHT22;3644;53.480;10.004;2022-09-03T03:24:19;15.40;99.90
7206;DHT22;3644;53.480;10.004;2022-09-03T03:26:45;15.40;99.90
7206;DHT22;3644;53.480;10.004;2022-09-03T03:29:14;15.40;99.90
7206;DHT22;3644;53.480;10.004;2022-09-03T03:31:41;15.30;99.90
7206;DHT22;3644;53.480;10.004;2022-09-03T03:34:07;15.30;99.90
7206;DHT22;3644;53.480;10.004;2022-09-03T03:36:32;15.30;99.90
7206;DHT22;3644;53.480;10.004;2022-09-03T03:38:59;15.20;99.90
7206;DHT22;3644;53.480;10.004;2022-09-03T03:41:31;15.20;99.90
7206;DHT22;3644;53.480;10.004;2022-09-03T03:43:59;15.20;99.90
7206;DHT22;3644;53.480;10.004;2022-09-03T03:46:29;15.20;99.90
7206;DHT22;3644;53.480;10.004;2022-09-03T03:48:55;15.20;99.90
7206;DHT22;3644;53.480;10.004;2022-09-03T03:51:21;15.10;99.90
7206;DHT22;3644;53.480;10.004;2022-09-03T03:53:46;15.10;99.90
7206;DHT22;3644;53.480;10.004;2022-09-03T03:56:13;15.00;99.90
7206;DHT22;3644;53.480;10.004;2022-09-03T03:58:40;14.90;99.90
7206;DHT22;3644;53.480;10.004;2022-09-03T04:01:17;14.90;99.90
7206;DHT22;3644;53.480;10.004;2022-09-03T04:03:43;14.90;99.90
7206;DHT22;3644;53.480;10.004;2022-09-03T04:06:11;14.90;99.90
7206;DHT22;3644;53.480;10.004;2022-09-03T04:08:39;14.90;99.90
7206;DHT22;3644;53.480;10.004;2022-09-03T04:11:08;14.90;99.90
7206;DHT22;3644;53.480;10.004;2022-09-03T04:13:36;14.80;99.90
7206;DHT22;3644;53.480;10.004;2022-09-03T04:16:06;14.80;99.90
7206;DHT22;3644;53.480;10.004;2022-09-03T04:18:33;14.70;99.90
7206;DHT22;3644;53.480;10.004;2022-09-03T04:21:10;14.70;99.90
7206;DHT22;3644;53.480;10.004;2022-09-03T04:23:38;14.70;99.90
7206;DHT22;3644;53.480;10.004;2022-09-03T04:26:05;14.70;99.90
7206;DHT22;3644;53.480;10.004;2022-09-03T04:28:31;14.60;99.90
7206;DHT22;3644;53.480;10.004;2022-09-03T04:31:05;14.60;99.90
7206;DHT22;3644;53.480;10.004;2022-09-03T04:33:31;14.60;99.90
7206;DHT22;3644;53.480;10.004;2022-09-03T04:38:30;14.60;99.90
7206;DHT22;3644;53.480;10.004;2022-09-03T04:40:57;14.50;99.90
7206;DHT22;3644;53.480;10.004;2022-09-03T04:43:24;14.40;99.90
7206;DHT22;3644;53.480;10.004;2022-09-03T04:45:49;14.40;99.90
7206;DHT22;3644;53.480;10.004;2022-09-03T04:48:15;14.50;99.90
7206;DHT22;3644;53.480;10.004;2022-09-03T04:50:40;14.40;99.90
7206;DHT22;3644;53.480;10.004;2022-09-03T04:53:06;14.40;99.90
7206;DHT22;3644;53.480;10.004;2022-09-03T04:55:33;14.30;99.90
7206;DHT22;3644;53.480;10.004;2022-09-03T04:57:59;14.40;99.90
7206;DHT22;3644;53.480;10.004;2022-09-03T05:00:25;14.40;99.90
7206;DHT22;3644;53.480;10.004;2022-09-03T05:02:50;14.30;99.90
7206;DHT22;3644;53.480;10.004;2022-09-03T05:05:17;14.40;99.90
7206;DHT22;3644;53.480;10.004;2022-09-03T05:07:43;14.40;99.90
7206;DHT22;3644;53.480;10.004;2022-09-03T05:10:10;14.50;99.90
7206;DHT22;3644;53.480;10.004;2022-09-03T05:12:46;14.40;99.90
7206;DHT22;3644;53.480;10.004;2022-09-03T05:15:14;14.40;99.90
7206;DHT22;3644;53.480;10.004;2022-09-03T05:17:39;14.50;99.90
7206;DHT22;3644;53.480;10.004;2022-09-03T05:20:05;14.40;99.90
7206;DHT22;3644;53.480;10.004;2022-09-03T05:22:33;14.50;99.90
7206;DHT22;3644;53.480;10.004;2022-09-03T05:24:59;14.60;99.90
7206;DHT22;3644;53.480;10.004;2022-09-03T05:27:24;14.50;99.90
7206;DHT22;3644;53.480;10.004;2022-09-03T05:29:50;14.60;99.90
7206;DHT22;3644;53.480;10.004;2022-09-03T05:32:15;14.50;99.90
7206;DHT22;3644;53.480;10.004;2022-09-03T05:34:42;14.50;99.90
7206;DHT22;3644;53.480;10.004;2022-09-03T05:37:08;14.60;99.90
7206;DHT22;3644;53.480;10.004;2022-09-03T05:39:34;14.60;99.90
7206;DHT22;3644;53.480;10.004;2022-09-03T05:41:59;14.70;99.90
7206;DHT22;3644;53.480;10.004;2022-09-03T05:44:25;14.70;99.90
7206;DHT22;3644;53.480;10.004;2022-09-03T05:46:50;14.80;99.90
7206;DHT22;3644;53.480;10.004;2022-09-03T05:49:16;14.90;99.90
7206;DHT22;3644;53.480;10.004;2022-09-03T05:51:42;14.80;99.90
7206;DHT22;3644;53.480;10.004;2022-09-03T05:54:08;14.80;99.90
7206;DHT22;3644;53.480;10.004;2022-09-03T05:56:36;14.90;99.90
7206;DHT22;3644;53.480;10.004;2022-09-03T05:59:05;14.90;99.90
7206;DHT22;3644;53.480;10.004;2022-09-03T06:01:38;15.00;99.90
7206;DHT22;3644;53.480;10.004;2022-09-03T06:04:06;15.20;99.90
7206;DHT22;3644;53.480;10.004;2022-09-03T06:06:34;15.20;99.90
7206;DHT22;3644;53.480;10.004;2022-09-03T06:09:05;15.20;99.90
7206;DHT22;3644;53.480;10.004;2022-09-03T06:11:32;15.20;99.90
7206;DHT22;3644;53.480;10.004;2022-09-03T06:14:00;15.40;99.90
7206;DHT22;3644;53.480;10.004;2022-09-03T06:16:26;15.40;99.90
7206;DHT22;3644;53.480;10.004;2022-09-03T06:18:52;15.40;99.90
7206;DHT22;3644;53.480;10.004;2022-09-03T06:21:18;15.50;99.90
7206;DHT22;3644;53.480;10.004;2022-09-03T06:23:49;15.60;99.90
7206;DHT22;3644;53.480;10.004;2022-09-03T06:26:16;15.60;99.90
7206;DHT22;3644;53.480;10.004;2022-09-03T06:28:42;15.70;99.90
7206;DHT22;3644;53.480;10.004;2022-09-03T06:31:10;15.80;99.90
7206;DHT22;3644;53.480;10.004;2022-09-03T06:33:37;15.80;99.90
7206;DHT22;3644;53.480;10.004;2022-09-03T06:36:05;15.90;99.90
7206;DHT22;3644;53.480;10.004;2022-09-03T06:38:33;15.90;99.90
7206;DHT22;3644;53.480;10.004;2022-09-03T06:41:14;16.10;99.90
7206;DHT22;3644;53.480;10.004;2022-09-03T06:43:53;16.30;99.90
7206;DHT22;3644;53.480;10.004;2022-09-03T06:46:21;16.20;99.90
7206;DHT22;3644;53.480;10.004;2022-09-03T06:48:47;16.20;99.90
7206;DHT22;3644;53.480;10.004;2022-09-03T06:51:18;16.30;99.90
7206;DHT22;3644;53.480;10.004;2022-09-03T06:53:47;16.40;99.90
7206;DHT22;3644;53.480;10.004;2022-09-03T06:56:15;16.50;99.90
7206;DHT22;3644;53.480;10.004;2022-09-03T06:58:47;16.50;99.90
7206;DHT22;3644;53.480;10.004;2022-09-03T07:01:15;16.50;99.90
7206;DHT22;3644;53.480;10.004;2022-09-03T07:03:42;16.60;99.90
7206;DHT22;3644;53.480;10.004;2022-09-03T07:06:16;16.70;99.90
7206;DHT22;3644;53.480;10.004;2022-09-03T07:08:42;16.70;99.90
7206;DHT22;3644;53.480;10.004;2022-09-03T07:11:11;16.80;99.90
7206;DHT22;3644;53.480;10.004;2022-09-03T07:13:42;16.80;99.90
7206;DHT22;3644;53.480;10.004;2022-09-03T07:16:11;16.90;99.90
7206;DHT22;3644;53.480;10.004;2022-09-03T07:18:37;16.90;99.90
7206;DHT22;3644;53.480;10.004;2022-09-03T07:21:07;17.20;99.90
7206;DHT22;3644;53.480;10.004;2022-09-03T07:23:35;17.10;99.90
7206;DHT22;3644;53.480;10.004;2022-09-03T07:26:04;17.20;99.90
7206;DHT22;3644;53.480;10.004;2022-09-03T07:28:30;17.20;99.90
7206;DHT22;3644;53.480;10.004;2022-09-03T07:31:11;17.40;99.90
7206;DHT22;3644;53.480;10.004;2022-09-03T07:33:37;17.50;99.90
7206;DHT22;3644;53.480;10.004;2022-09-03T07:36:05;17.60;99.90
7206;DHT22;3644;53.480;10.004;2022-09-03T07:38:32;17.60;99.90
7206;DHT22;3644;53.480;10.004;2022-09-03T07:40:59;17.70;99.90
7206;DHT22;3644;53.480;10.004;2022-09-03T07:43:31;17.70;99.90
7206;DHT22;3644;53.480;10.004;2022-09-03T07:45:58;17.80;99.90
7206;DHT22;3644;53.480;10.004;2022-09-03T07:48:23;17.80;99.90
7206;DHT22;3644;53.480;10.004;2022-09-03T07:50:49;17.70;99.90
7206;DHT22;3644;53.480;10.004;2022-09-03T07:53:15;17.90;99.90
7206;DHT22;3644;53.480;10.004;2022-09-03T07:55:42;18.00;99.90
7206;DHT22;3644;53.480;10.004;2022-09-03T07:58:08;18.10;99.90
7206;DHT22;3644;53.480;10.004;2022-09-03T08:00:35;18.30;99.90
7206;DHT22;3644;53.480;10.004;2022-09-03T08:03:01;18.30;99.90
7206;DHT22;3644;53.480;10.004;2022-09-03T08:05:31;18.50;99.90
7206;DHT22;3644;53.480;10.004;2022-09-03T08:07:59;18.60;99.90
7206;DHT22;3644;53.480;10.004;2022-09-03T08:10:26;18.60;99.90
7206;DHT22;3644;53.480;10.004;2022-09-03T08:12:54;18.70;99.90
7206;DHT22;3644;53.480;10.004;2022-09-03T08:15:20;18.90;99.90
7206;DHT22;3644;53.480;10.004;2022-09-03T08:17:45;19.00;99.90
7206;DHT22;3644;53.480;10.004;2022-09-03T08:20:11;19.10;99.90
7206;DHT22;3644;53.480;10.004;2022-09-03T08:22:36;19.10;99.90
7206;DHT22;3644;53.480;10.004;2022-09-03T08:25:03;19.20;99.90
7206;DHT22;3644;53.480;10.004;2022-09-03T08:27:28;19.20;99.90
7206;DHT22;3644;53.480;10.004;2022-09-03T08:29:54;19.20;99.90
7206;DHT22;3644;53.480;10.004;2022-09-03T08:32:19;19.40;99.90
7206;DHT22;3644;53.480;10.004;2022-09-03T08:34:45;19.50;99.90
7206;DHT22;3644;53.480;10.004;2022-09-03T08:37:11;19.60;99.90
7206;DHT22;3644;53.480;10.004;2022-09-03T08:39:37;19.70;99.90
7206;DHT22;3644;53.480;10.004;2022-09-03T08:42:16;19.80;99.90
7206;DHT22;3644;53.480;10.004;2022-09-03T08:44:53;20.00;99.90
7206;DHT22;3644;53.480;10.004;2022-09-03T08:47:31;20.00;99.90
7206;DHT22;3644;53.480;10.004;2022-09-03T08:52:36;20.00;99.90
7206;DHT22;3644;53.480;10.004;2022-09-03T08:58:08;20.20;99.90
7206;DHT22;3644;53.480;10.004;2022-09-03T09:00:48;20.30;99.90
7206;DHT22;3644;53.480;10.004;2022-09-03T09:06:13;20.30;99.90
7206;DHT22;3644;53.480;10.004;2022-09-03T09:17:29;20.70;99.90
7206;DHT22;3644;53.480;10.004;2022-09-03T09:20:04;20.80;99.90
7206;DHT22;3644;53.480;10.004;2022-09-03T09:22:38;20.80;99.90
7206;DHT22;3644;53.480;10.004;2022-09-03T09:25:09;20.60;99.90
7206;DHT22;3644;53.480;10.004;2022-09-03T09:27:43;20.70;99.90
7206;DHT22;3644;53.480;10.004;2022-09-03T09:30:12;20.80;99.90
7206;DHT22;3644;53.480;10.004;2022-09-03T09:32:41;20.90;99.90
7206;DHT22;3644;53.480;10.004;2022-09-03T09:35:09;20.90;99.90
7206;DHT22;3644;53.480;10.004;2022-09-03T09:37:55;20.80;99.90
7206;DHT22;3644;53.480;10.004;2022-09-03T09:40:43;21.00;99.90
7206;DHT22;3644;53.480;10.004;2022-09-03T09:43:18;21.00;99.90
7206;DHT22;3644;53.480;10.004;2022-09-03T09:45:49;21.20;99.90
7206;DHT22;3644;53.480;10.004;2022-09-03T09:50:40;21.50;99.90
7206;DHT22;3644;53.480;10.004;2022-09-03T09:53:10;21.60;99.90
7206;DHT22;3644;53.480;10.004;2022-09-03T09:55:52;21.70;99.90
7206;DHT22;3644;53.480;10.004;2022-09-03T09:58:20;21.60;99.90
7206;DHT22;3644;53.480;10.004;2022-09-03T10:03:21;21.90;99.90
7206;DHT22;3644;53.480;10.004;2022-09-03T10:05:57;22.00;99.90
7206;DHT22;3644;53.480;10.004;2022-09-03T10:08:25;22.20;99.90
7206;DHT22;3644;53.480;10.004;2022-09-03T10:10:51;22.30;99.90
